Appomattox, Virginia
Current Conditions -  °F | °C
As of 12:35 AM on Saturday 20 Dec 2014 (Local Time) from K0V4 Reporting Station
Clear Clear  
Wind Chill: 32°   Ceiling: Unl
Heat Index: 32°   Visibility: 10mi
Dew Point: 27°   Wind: 0mph
Humidity: 83%   Direction: NA
Pressure: 30.24"   Gusts: NA
Location:  37.36°N, 78.83°W
Report Text: K0V4 200535Z AUTO 00000KT 10SM CLR 00/M03 A3024 RMK AO1 T00001026
Loading
Personal Weather Stations






























Interactive Weather Map New forecast layout! Learn more

10-Day Weather Forecast

Advertisements
Track Severe Weather on mobile